EDLP/PAD METAR and TAF weather

Enter ICAO airport designator
Station Type Date Time Source
EDLP METAR 2018/10/22 16:50 UTC NOAA

EDLP 221650Z VRB02KT 9999 SCT048 ///// Q1031


Station Type Date Time Source
EDLP Decoded METAR 2018/10/22 16:50 UTC NOAA

Paderborn / Lippstadt, Germany (EDLP) 51-37N 008-37E
Oct 22, 2018 - 12:50 PM EDT / 2018.10.22 1650 UTC
Wind: Variable at 2 MPH (2 KT):0
Visibility: greater than 7 mile(s):0
Sky conditions: partly cloudy
Pressure (altimeter): 30.45 in. Hg (1031 hPa)
ob: EDLP 221650Z VRB02KT 9999 SCT048 ///// Q1031
cycle: 17

Station Type Date Time Source
EDLP TAF 2018/10/22 13:07 UTC NOAA

TAF
AMD EDLP 221356Z 2213/2312 29006KT 9999 SCT030
TEMPO 2213/2218 VRB03KT
BECMG 2218/2220 23005KT
BECMG 2301/2303 24010KT
BECMG 2305/2307 25015G25KT PROB30
TEMPO 2310/2312 BKN012


Example: see airport list